createdAt,value
2018-04-01T00:03:35.468Z,3.20
2018-04-01T00:07:37.520Z,4.73
2018-04-01T00:11:39.553Z,3.50
2018-04-01T00:15:41.621Z,4.33
2018-04-01T00:19:43.640Z,5.13
2018-04-01T00:23:45.785Z,4.43
2018-04-01T00:27:48.631Z,8.77
2018-04-01T00:31:50.687Z,5.70
2018-04-01T00:35:55.425Z,3.17
2018-04-01T00:39:57.551Z,2.83
2018-04-01T00:43:59.588Z,8.60
2018-04-01T00:48:01.641Z,5.27
2018-04-01T00:52:03.672Z,2.50
2018-04-01T00:56:05.752Z,4.67
2018-04-01T01:00:07.895Z,2.67
2018-04-01T01:04:10.260Z,7.50
2018-04-01T01:08:12.293Z,6.97
2018-04-01T01:12:14.379Z,8.13
2018-04-01T01:16:16.424Z,8.57
2018-04-01T01:20:18.504Z,17.33
2018-04-01T01:24:20.531Z,14.77
2018-04-01T01:28:22.592Z,7.80
2018-04-01T01:32:29.351Z,16.97
2018-04-01T01:36:31.410Z,15.67
2018-04-01T01:40:33.675Z,20.70
2018-04-01T01:44:37.962Z,11.30
2018-04-01T01:48:39.988Z,6.80
2018-04-01T01:52:43.960Z,8.37
2018-04-01T01:56:46.781Z,6.27
2018-04-01T02:01:00.894Z,11.37
2018-04-01T02:05:02.936Z,11.50
2018-04-01T02:09:06.072Z,4.80
2018-04-01T02:13:08.869Z,6.70
2018-04-01T02:17:11.005Z,12.90
2018-04-01T02:21:13.263Z,5.63
2018-04-01T02:25:16.384Z,6.37
2018-04-01T02:29:18.403Z,5.47
2018-04-01T02:33:20.453Z,9.00
2018-04-01T02:37:22.504Z,8.87
2018-04-01T02:41:24.656Z,5.10
2018-04-01T02:45:26.693Z,8.43
2018-04-01T02:49:28.755Z,6.47
2018-04-01T02:53:31.549Z,3.60
2018-04-01T02:57:33.598Z,2.50
2018-04-01T03:01:35.623Z,2.27
2018-04-01T03:05:38.529Z,3.07
2018-04-01T03:09:40.579Z,6.17
2018-04-01T03:13:43.598Z,4.47
2018-04-01T03:17:46.595Z,3.50
2018-04-01T03:21:48.663Z,4.20
2018-04-01T03:25:51.379Z,3.17
2018-04-01T03:29:54.473Z,3.10
2018-04-01T03:33:56.521Z,2.83
2018-04-01T03:37:59.331Z,3.73
2018-04-01T03:42:01.776Z,2.33
2018-04-01T03:46:03.904Z,2.87
2018-04-01T03:50:06.071Z,3.67
2018-04-01T03:54:08.520Z,3.30
2018-04-01T03:58:11.317Z,3.17
2018-04-01T04:02:13.485Z,2.73
2018-04-01T04:06:15.530Z,3.37
2018-04-01T04:10:18.441Z,3.53
2018-04-01T04:14:21.750Z,6.20
2018-04-01T04:18:24.272Z,4.23
2018-04-01T04:22:27.312Z,5.20
2018-04-01T04:26:30.154Z,4.67
2018-04-01T04:30:32.176Z,4.53
2018-04-01T04:34:34.245Z,4.03
2018-04-01T04:38:36.268Z,3.80
2018-04-01T04:42:38.517Z,5.10
2018-04-01T04:46:40.544Z,4.30
2018-04-01T04:50:42.617Z,6.70
2018-04-01T04:54:44.880Z,7.23
2018-04-01T04:58:46.968Z,6.70
2018-04-01T05:02:48.992Z,6.57
2018-04-01T05:06:51.103Z,6.57
2018-04-01T05:10:53.120Z,4.73
2018-04-01T05:14:55.268Z,5.10
2018-04-01T05:18:57.302Z,8.47
2018-04-01T05:22:59.344Z,5.80
2018-04-01T05:27:01.387Z,7.13
2018-04-01T05:31:03.445Z,8.60
2018-04-01T05:35:05.478Z,11.13
2018-04-01T05:39:07.624Z,8.10
2018-04-01T05:43:14.800Z,10.57
2018-04-01T05:47:16.859Z,10.80
2018-04-01T05:51:18.954Z,13.00
2018-04-01T05:55:21.771Z,12.00
2018-04-01T05:59:23.802Z,13.37
2018-04-01T06:03:26.239Z,16.67
2018-04-01T06:07:29.032Z,13.10
2018-04-01T06:11:31.164Z,11.13
2018-04-01T06:15:34.963Z,12.17
2018-04-01T06:19:37.011Z,11.00
2018-04-01T06:23:39.060Z,13.23
2018-04-01T06:27:41.119Z,14.30
2018-04-01T06:31:43.169Z,14.43
2018-04-01T06:35:45.216Z,12.80
2018-04-01T06:39:48.004Z,12.53
2018-04-01T06:43:50.076Z,13.00
2018-04-01T06:47:52.100Z,12.10
2018-04-01T06:51:54.190Z,11.63
2018-04-01T06:55:59.506Z,13.17
2018-04-01T07:00:01.773Z,17.73
2018-04-01T07:04:03.804Z,13.43
2018-04-01T07:08:06.876Z,15.87
2018-04-01T07:12:08.966Z,13.23
2018-04-01T07:16:11.006Z,12.60
2018-04-01T07:20:13.029Z,11.63
2018-04-01T07:24:15.084Z,9.90
2018-04-01T07:28:17.869Z,13.27
2018-04-01T07:32:20.865Z,14.77
2018-04-01T07:36:22.952Z,12.10
2018-04-01T07:40:24.974Z,12.17
2018-04-01T07:44:27.005Z,11.57
2018-04-01T07:48:29.057Z,12.10
2018-04-01T07:52:31.576Z,12.53
2018-04-01T07:56:33.660Z,11.00
2018-04-01T08:00:35.677Z,11.10
2018-04-01T08:04:37.884Z,11.03
2018-04-01T08:08:39.920Z,10.73
2018-04-01T08:12:41.972Z,11.03
2018-04-01T08:16:47.463Z,10.53
2018-04-01T08:20:49.533Z,11.50
2018-04-01T08:24:51.561Z,9.80
2018-04-01T08:28:54.592Z,8.50
2018-04-01T08:32:56.623Z,6.90
2018-04-01T08:36:59.095Z,5.93
2018-04-01T08:41:01.124Z,5.57
2018-04-01T08:45:14.328Z,7.03
2018-04-01T08:49:16.352Z,5.70
2018-04-01T08:53:18.424Z,8.10
2018-04-01T08:57:20.457Z,7.47
2018-04-01T09:01:27.935Z,8.13
2018-04-01T09:05:30.286Z,7.70
2018-04-01T09:09:32.970Z,6.90
2018-04-01T09:13:35.010Z,6.70
2018-04-01T09:17:37.095Z,7.23
2018-04-01T09:21:40.096Z,8.17
2018-04-01T09:25:43.118Z,8.93
2018-04-01T09:29:51.891Z,11.13
2018-04-01T09:33:53.978Z,8.17
2018-04-01T09:38:00.445Z,7.37
2018-04-01T09:42:03.951Z,7.27
2018-04-01T09:46:08.012Z,7.80
2018-04-01T09:50:10.975Z,7.63
2018-04-01T09:54:14.052Z,6.47
2018-04-01T09:58:17.973Z,7.37
2018-04-01T10:02:20.640Z,8.03
2018-04-01T10:06:23.581Z,7.87
2018-04-01T10:10:26.182Z,10.40
2018-04-01T10:14:29.588Z,7.87
2018-04-01T10:18:37.359Z,6.13
2018-04-01T10:22:43.590Z,8.67
2018-04-01T10:26:47.066Z,6.13
2018-04-01T10:30:50.691Z,6.90
2018-04-01T10:34:53.257Z,7.17
2018-04-01T10:38:56.783Z,7.60
2018-04-01T10:43:02.368Z,6.90
2018-04-01T10:47:05.914Z,7.23
2018-04-01T10:51:10.416Z,7.20
2018-04-01T10:55:12.774Z,6.90
2018-04-01T10:59:14.808Z,7.50
2018-04-01T11:03:18.905Z,12.27
2018-04-01T11:07:20.965Z,7.73
2018-04-01T11:11:24.269Z,9.27
2018-04-01T11:15:26.252Z,9.90
2018-04-01T11:19:28.421Z,9.03
2018-04-01T11:23:31.398Z,8.13
2018-04-01T11:27:33.501Z,9.13
2018-04-01T11:31:36.317Z,8.97
2018-04-01T11:35:39.199Z,9.07
2018-04-01T11:39:45.846Z,10.13
2018-04-01T11:43:47.934Z,9.37
2018-04-01T11:47:50.010Z,9.33
2018-04-01T11:51:52.949Z,8.80
2018-04-01T11:55:55.013Z,10.90
2018-04-01T11:59:57.469Z,10.50
2018-04-01T12:03:59.544Z,11.77
2018-04-01T12:08:03.713Z,13.27
2018-04-01T12:12:06.780Z,14.73
2018-04-01T12:16:09.661Z,14.83
2018-04-01T12:20:11.957Z,14.13
2018-04-01T12:24:14.141Z,15.67
2018-04-01T12:28:16.202Z,14.80
2018-04-01T12:32:21.009Z,13.80
2018-04-01T12:36:23.054Z,11.67
2018-04-01T12:40:25.162Z,12.47
2018-04-01T12:44:28.147Z,12.00
2018-04-01T12:48:30.395Z,12.20
2018-04-01T12:52:32.921Z,11.80
2018-04-01T12:56:35.006Z,10.40
2018-04-01T13:00:37.054Z,9.83
2018-04-01T13:04:39.149Z,10.80
2018-04-01T13:08:42.056Z,11.87
2018-04-01T13:12:45.143Z,12.27
2018-04-01T13:16:47.227Z,14.33
2018-04-01T13:20:51.231Z,11.00
2018-04-01T13:24:53.307Z,11.30
2018-04-01T13:28:56.340Z,14.07
2018-04-01T13:32:58.352Z,12.53
2018-04-01T13:37:00.416Z,14.13
2018-04-01T13:41:02.444Z,14.63
2018-04-01T13:45:04.496Z,14.53
2018-04-01T13:49:07.005Z,16.60
2018-04-01T13:53:10.060Z,17.83
2018-04-01T13:57:14.088Z,15.53
2018-04-01T14:01:16.208Z,14.73
2018-04-01T14:05:18.254Z,14.63
2018-04-01T14:09:21.319Z,10.93
2018-04-01T14:13:23.935Z,15.40
2018-04-01T14:17:26.081Z,13.17
2018-04-01T14:21:30.182Z,14.07
2018-04-01T14:25:34.208Z,15.77
2018-04-01T14:29:38.449Z,12.80
2018-04-01T14:33:40.529Z,14.57
2018-04-01T14:37:43.328Z,14.53
2018-04-01T14:41:48.167Z,15.30
2018-04-01T14:45:50.204Z,14.13
2018-04-01T14:49:53.240Z,17.70
2018-04-01T14:53:56.342Z,18.50
2018-04-01T14:57:59.100Z,18.87
2018-04-01T15:02:01.143Z,19.73
2018-04-01T15:06:03.238Z,23.93
2018-04-01T15:10:05.282Z,23.87
2018-04-01T15:14:07.348Z,22.17
2018-04-01T15:18:09.418Z,20.57
2018-04-01T15:22:11.512Z,21.43
2018-04-01T15:26:14.397Z,21.17
2018-04-01T15:30:16.490Z,26.63
2018-04-01T15:34:18.633Z,26.20
2018-04-01T15:38:21.936Z,25.93
2018-04-01T15:42:24.762Z,26.80
2018-04-01T15:46:27.585Z,24.47
2018-04-01T15:50:29.652Z,23.57
2018-04-01T15:54:31.769Z,28.17
2018-04-01T15:58:33.836Z,24.93
2018-04-01T16:02:35.926Z,23.73
2018-04-01T16:06:38.930Z,23.67
2018-04-01T16:10:40.997Z,27.23
2018-04-01T16:14:43.942Z,26.53
2018-04-01T16:18:46.029Z,25.10
2018-04-01T16:22:48.061Z,26.93
2018-04-01T16:26:51.087Z,27.27
2018-04-01T16:30:53.897Z,26.33
2018-04-01T16:34:58.047Z,25.37
2018-04-01T16:39:00.085Z,27.37
2018-04-01T16:43:02.166Z,27.20
2018-04-01T16:47:04.971Z,28.90
2018-04-01T16:51:07.049Z,27.50
2018-04-01T16:55:13.184Z,25.47
2018-04-01T16:59:18.602Z,27.97
2018-04-01T17:03:20.686Z,25.47
2018-04-01T17:07:22.748Z,28.30
2018-04-01T17:11:24.790Z,30.17
2018-04-01T17:15:27.639Z,32.87
2018-04-01T17:19:29.664Z,30.70
2018-04-01T17:23:31.822Z,32.23
2018-04-01T17:27:33.844Z,32.57
2018-04-01T17:31:35.999Z,32.87
2018-04-01T17:35:39.096Z,34.80
2018-04-01T17:39:41.164Z,38.97
2018-04-01T17:43:43.214Z,45.10
2018-04-01T17:47:45.583Z,43.20
2018-04-01T17:51:47.645Z,38.50
2018-04-01T17:55:49.728Z,34.63
2018-04-01T17:59:53.744Z,32.87
2018-04-01T18:03:55.837Z,29.37
2018-04-01T18:07:57.873Z,23.60
2018-04-01T18:12:01.965Z,24.17
2018-04-01T18:16:04.030Z,21.03
2018-04-01T18:20:08.488Z,20.73
2018-04-01T18:24:10.520Z,21.20
2018-04-01T18:28:12.593Z,21.13
2018-04-01T18:32:14.648Z,21.37
2018-04-01T18:36:22.513Z,20.57
2018-04-01T18:40:30.252Z,22.57
2018-04-01T18:44:34.283Z,22.10
2018-04-01T18:48:37.088Z,20.77
2018-04-01T18:52:39.933Z,25.63
2018-04-01T18:56:42.897Z,22.73
2018-04-01T19:00:45.066Z,24.07
2018-04-01T19:04:47.490Z,21.33
2018-04-01T19:08:49.631Z,26.27
2018-04-01T19:12:53.429Z,23.47
2018-04-01T19:17:12.125Z,28.10
2018-04-01T19:21:16.643Z,32.70
2018-04-01T19:25:20.235Z,34.97
2018-04-01T19:29:23.605Z,26.87
2018-04-01T19:33:33.608Z,30.83
2018-04-01T19:37:36.136Z,36.10
2018-04-01T19:41:38.672Z,30.80
2018-04-01T19:45:41.275Z,45.77
2018-04-01T19:49:43.832Z,38.53
2018-04-01T19:53:49.385Z,39.90
2018-04-01T19:57:51.941Z,44.53
2018-04-01T20:01:55.235Z,52.73
2018-04-01T20:05:57.785Z,63.67
2018-04-01T20:10:01.252Z,49.60
2018-04-01T20:14:04.241Z,35.93
2018-04-01T20:18:06.806Z,38.17
2018-04-01T20:22:09.361Z,53.70
2018-04-01T20:26:13.623Z,44.40
2018-04-01T20:30:19.241Z,45.10
2018-04-01T20:34:22.570Z,43.07
2018-04-01T20:38:26.071Z,49.50
2018-04-01T20:42:28.596Z,50.40
2018-04-01T20:46:31.144Z,49.13
2018-04-01T20:50:33.681Z,49.17
2018-04-01T20:54:36.231Z,44.00
2018-04-01T20:58:42.972Z,46.10
2018-04-01T21:02:46.548Z,49.50
2018-04-01T21:06:49.084Z,49.57
2018-04-01T21:10:53.602Z,57.23
2018-04-01T21:14:56.168Z,55.60
2018-04-01T21:18:58.710Z,55.63
2018-04-01T21:23:01.238Z,47.67
2018-04-01T21:27:03.792Z,56.63
2018-04-01T21:31:08.257Z,59.57
2018-04-01T21:35:12.211Z,54.93
2018-04-01T21:39:16.436Z,55.20
2018-04-01T21:43:19.406Z,58.77
2018-04-01T21:47:22.221Z,58.60
2018-04-01T21:51:24.824Z,62.47
2018-04-01T21:55:27.373Z,68.90
2018-04-01T21:59:30.688Z,63.37
2018-04-01T22:03:33.212Z,62.93
2018-04-01T22:07:35.801Z,64.90
2018-04-01T22:11:38.344Z,75.80
2018-04-01T22:15:43.003Z,67.67
2018-04-01T22:19:46.324Z,67.87
2018-04-01T22:23:49.080Z,64.67
2018-04-01T22:27:51.626Z,73.33
2018-04-01T22:31:54.208Z,75.60
2018-04-01T22:35:57.013Z,66.30
2018-04-01T22:40:00.613Z,67.97
2018-04-01T22:44:03.900Z,70.40
2018-04-01T22:48:06.620Z,70.63
2018-04-01T22:52:09.204Z,73.20
2018-04-01T22:56:11.761Z,68.13
2018-04-01T23:00:14.289Z,79.07
2018-04-01T23:04:16.850Z,76.87
2018-04-01T23:08:19.381Z,79.07
2018-04-01T23:12:22.700Z,85.77
2018-04-01T23:16:25.975Z,88.97
2018-04-01T23:20:28.516Z,82.37
2018-04-01T23:24:31.045Z,85.37
2018-04-01T23:28:36.321Z,80.77
2018-04-01T23:32:39.788Z,85.53
2018-04-01T23:36:42.338Z,78.27
2018-04-01T23:40:44.850Z,79.43
2018-04-01T23:44:48.171Z,74.20
2018-04-01T23:48:56.564Z,76.80
2018-04-01T23:52:59.105Z,72.97
2018-04-01T23:57:01.640Z,76.23
